sensor_id;sensor_type;location;lat;lon;timestamp;temperature;humidity
17483;DHT22;8858;52.308;20.994;2023-06-14T00:02:01;13.50;99.90
17483;DHT22;8858;52.308;20.994;2023-06-14T00:04:31;13.50;99.90
17483;DHT22;8858;52.308;20.994;2023-06-14T00:07:04;13.50;99.90
17483;DHT22;8858;52.308;20.994;2023-06-14T00:09:35;13.50;99.90
17483;DHT22;8858;52.308;20.994;2023-06-14T00:12:05;13.60;99.90
17483;DHT22;8858;52.308;20.994;2023-06-14T00:14:35;13.60;99.90
17483;DHT22;8858;52.308;20.994;2023-06-14T00:17:04;13.50;99.90
17483;DHT22;8858;52.308;20.994;2023-06-14T00:19:35;13.50;99.90
17483;DHT22;8858;52.308;20.994;2023-06-14T00:22:04;13.60;99.90
17483;DHT22;8858;52.308;20.994;2023-06-14T00:24:33;13.60;99.90
17483;DHT22;8858;52.308;20.994;2023-06-14T00:27:05;13.60;99.90
17483;DHT22;8858;52.308;20.994;2023-06-14T00:29:35;13.60;99.90
17483;DHT22;8858;52.308;20.994;2023-06-14T00:32:05;13.60;99.90
17483;DHT22;8858;52.308;20.994;2023-06-14T00:34:33;13.60;99.90
17483;DHT22;8858;52.308;20.994;2023-06-14T00:37:02;13.60;99.90
17483;DHT22;8858;52.308;20.994;2023-06-14T00:39:32;13.60;99.90
17483;DHT22;8858;52.308;20.994;2023-06-14T00:42:01;13.60;99.90
17483;DHT22;8858;52.308;20.994;2023-06-14T00:44:30;13.60;99.90
17483;DHT22;8858;52.308;20.994;2023-06-14T00:47:00;13.60;99.90
17483;DHT22;8858;52.308;20.994;2023-06-14T00:49:29;13.60;99.90
17483;DHT22;8858;52.308;20.994;2023-06-14T00:52:01;13.60;99.90
17483;DHT22;8858;52.308;20.994;2023-06-14T00:54:29;13.60;99.90
17483;DHT22;8858;52.308;20.994;2023-06-14T00:56:58;13.60;99.90
17483;DHT22;8858;52.308;20.994;2023-06-14T00:59:27;13.60;99.90
17483;DHT22;8858;52.308;20.994;2023-06-14T01:01:55;13.60;99.90
17483;DHT22;8858;52.308;20.994;2023-06-14T01:04:25;13.60;99.90
17483;DHT22;8858;52.308;20.994;2023-06-14T01:06:58;13.70;99.90
17483;DHT22;8858;52.308;20.994;2023-06-14T01:09:37;13.60;99.90
17483;DHT22;8858;52.308;20.994;2023-06-14T01:12:13;13.60;99.90
17483;DHT22;8858;52.308;20.994;2023-06-14T01:14:47;13.60;99.90
17483;DHT22;8858;52.308;20.994;2023-06-14T01:17:19;13.60;99.90
17483;DHT22;8858;52.308;20.994;2023-06-14T01:19:50;13.70;99.90
17483;DHT22;8858;52.308;20.994;2023-06-14T01:22:26;13.60;99.90
17483;DHT22;8858;52.308;20.994;2023-06-14T01:24:56;13.60;99.90
17483;DHT22;8858;52.308;20.994;2023-06-14T01:27:25;13.60;99.90
17483;DHT22;8858;52.308;20.994;2023-06-14T01:29:55;13.70;99.90
17483;DHT22;8858;52.308;20.994;2023-06-14T01:32:25;13.60;99.90
17483;DHT22;8858;52.308;20.994;2023-06-14T01:34:55;13.70;99.90
17483;DHT22;8858;52.308;20.994;2023-06-14T01:37:28;13.70;99.90
17483;DHT22;8858;52.308;20.994;2023-06-14T01:40:01;13.70;99.90
17483;DHT22;8858;52.308;20.994;2023-06-14T01:42:31;13.70;99.90
17483;DHT22;8858;52.308;20.994;2023-06-14T01:45:00;13.70;99.90
17483;DHT22;8858;52.308;20.994;2023-06-14T01:47:31;13.70;99.90
17483;DHT22;8858;52.308;20.994;2023-06-14T01:49:59;13.80;99.90
17483;DHT22;8858;52.308;20.994;2023-06-14T01:52:30;13.80;99.90
17483;DHT22;8858;52.308;20.994;2023-06-14T01:54:58;13.80;99.90
17483;DHT22;8858;52.308;20.994;2023-06-14T01:57:30;13.80;99.90
17483;DHT22;8858;52.308;20.994;2023-06-14T01:59:59;13.80;99.90
17483;DHT22;8858;52.308;20.994;2023-06-14T02:02:27;13.90;99.90
17483;DHT22;8858;52.308;20.994;2023-06-14T02:04:56;13.80;99.90
17483;DHT22;8858;52.308;20.994;2023-06-14T02:07:25;13.80;99.90
17483;DHT22;8858;52.308;20.994;2023-06-14T02:09:54;13.80;99.90
17483;DHT22;8858;52.308;20.994;2023-06-14T02:12:27;13.80;99.90
17483;DHT22;8858;52.308;20.994;2023-06-14T02:14:58;13.80;99.90
17483;DHT22;8858;52.308;20.994;2023-06-14T02:17:28;13.80;99.90
17483;DHT22;8858;52.308;20.994;2023-06-14T02:20:06;13.80;99.90
17483;DHT22;8858;52.308;20.994;2023-06-14T02:22:36;13.90;99.90
17483;DHT22;8858;52.308;20.994;2023-06-14T02:25:07;13.90;99.90
17483;DHT22;8858;52.308;20.994;2023-06-14T02:27:36;13.90;99.90
17483;DHT22;8858;52.308;20.994;2023-06-14T02:30:07;13.90;99.90
17483;DHT22;8858;52.308;20.994;2023-06-14T02:32:36;14.00;99.90
17483;DHT22;8858;52.308;20.994;2023-06-14T02:35:07;13.90;99.90
17483;DHT22;8858;52.308;20.994;2023-06-14T02:37:36;13.90;99.90
17483;DHT22;8858;52.308;20.994;2023-06-14T02:40:06;14.00;99.90
17483;DHT22;8858;52.308;20.994;2023-06-14T02:42:36;14.00;99.90
17483;DHT22;8858;52.308;20.994;2023-06-14T02:45:06;14.00;99.90
17483;DHT22;8858;52.308;20.994;2023-06-14T02:47:39;14.00;99.90
17483;DHT22;8858;52.308;20.994;2023-06-14T02:50:08;14.00;99.90
17483;DHT22;8858;52.308;20.994;2023-06-14T02:52:37;14.00;99.90
17483;DHT22;8858;52.308;20.994;2023-06-14T02:55:06;14.00;99.90
17483;DHT22;8858;52.308;20.994;2023-06-14T02:57:36;14.00;99.90
17483;DHT22;8858;52.308;20.994;2023-06-14T03:00:11;14.00;99.90
17483;DHT22;8858;52.308;20.994;2023-06-14T03:02:44;14.00;99.90
17483;DHT22;8858;52.308;20.994;2023-06-14T03:05:15;14.00;99.90
17483;DHT22;8858;52.308;20.994;2023-06-14T03:07:48;14.00;99.90
17483;DHT22;8858;52.308;20.994;2023-06-14T03:10:18;14.00;99.90
17483;DHT22;8858;52.308;20.994;2023-06-14T03:12:50;14.00;99.90
17483;DHT22;8858;52.308;20.994;2023-06-14T03:15:22;14.00;99.90
17483;DHT22;8858;52.308;20.994;2023-06-14T03:17:52;14.10;99.90
17483;DHT22;8858;52.308;20.994;2023-06-14T03:20:21;14.00;99.90
17483;DHT22;8858;52.308;20.994;2023-06-14T03:22:53;14.10;99.90
17483;DHT22;8858;52.308;20.994;2023-06-14T03:25:21;14.10;99.90
17483;DHT22;8858;52.308;20.994;2023-06-14T03:27:51;14.10;99.90
17483;DHT22;8858;52.308;20.994;2023-06-14T03:30:22;14.10;99.90
17483;DHT22;8858;52.308;20.994;2023-06-14T03:32:52;14.10;99.90
17483;DHT22;8858;52.308;20.994;2023-06-14T03:35:26;14.10;99.90
17483;DHT22;8858;52.308;20.994;2023-06-14T03:37:55;14.20;99.90
17483;DHT22;8858;52.308;20.994;2023-06-14T03:40:26;14.20;99.90
17483;DHT22;8858;52.308;20.994;2023-06-14T03:43:01;14.20;99.90
17483;DHT22;8858;52.308;20.994;2023-06-14T03:45:31;14.20;99.90
17483;DHT22;8858;52.308;20.994;2023-06-14T03:48:03;14.30;99.90
17483;DHT22;8858;52.308;20.994;2023-06-14T03:50:35;14.20;99.90
17483;DHT22;8858;52.308;20.994;2023-06-14T03:53:09;14.30;99.90
17483;DHT22;8858;52.308;20.994;2023-06-14T03:55:40;14.30;99.90
17483;DHT22;8858;52.308;20.994;2023-06-14T03:58:12;14.30;99.90
17483;DHT22;8858;52.308;20.994;2023-06-14T04:00:43;14.30;99.90
17483;DHT22;8858;52.308;20.994;2023-06-14T04:03:12;14.30;99.90
17483;DHT22;8858;52.308;20.994;2023-06-14T04:05:42;14.30;99.90
17483;DHT22;8858;52.308;20.994;2023-06-14T04:08:12;14.30;99.90
17483;DHT22;8858;52.308;20.994;2023-06-14T04:10:41;14.30;99.90
17483;DHT22;8858;52.308;20.994;2023-06-14T04:13:09;14.40;99.90
17483;DHT22;8858;52.308;20.994;2023-06-14T04:15:43;14.40;99.90
17483;DHT22;8858;52.308;20.994;2023-06-14T04:18:18;14.40;99.90
17483;DHT22;8858;52.308;20.994;2023-06-14T04:20:51;14.50;99.90
17483;DHT22;8858;52.308;20.994;2023-06-14T04:23:20;14.50;99.90
17483;DHT22;8858;52.308;20.994;2023-06-14T04:25:49;14.60;99.90
17483;DHT22;8858;52.308;20.994;2023-06-14T04:28:23;14.60;99.90
17483;DHT22;8858;52.308;20.994;2023-06-14T04:30:57;14.70;99.90
17483;DHT22;8858;52.308;20.994;2023-06-14T04:33:32;14.70;99.90
17483;DHT22;8858;52.308;20.994;2023-06-14T04:36:15;14.80;99.90
17483;DHT22;8858;52.308;20.994;2023-06-14T04:38:47;14.80;99.90
17483;DHT22;8858;52.308;20.994;2023-06-14T04:41:20;14.80;99.90
17483;DHT22;8858;52.308;20.994;2023-06-14T04:43:50;14.90;99.90
17483;DHT22;8858;52.308;20.994;2023-06-14T04:46:23;14.90;99.90
17483;DHT22;8858;52.308;20.994;2023-06-14T04:48:52;15.00;99.90
17483;DHT22;8858;52.308;20.994;2023-06-14T04:51:21;15.00;99.90
17483;DHT22;8858;52.308;20.994;2023-06-14T04:53:57;15.00;99.90
17483;DHT22;8858;52.308;20.994;2023-06-14T04:56:27;15.10;99.90
17483;DHT22;8858;52.308;20.994;2023-06-14T04:58:57;15.10;99.90
17483;DHT22;8858;52.308;20.994;2023-06-14T05:01:27;15.10;99.90
17483;DHT22;8858;52.308;20.994;2023-06-14T05:03:56;15.20;99.90
17483;DHT22;8858;52.308;20.994;2023-06-14T05:06:26;15.30;99.90
17483;DHT22;8858;52.308;20.994;2023-06-14T05:08:55;15.30;99.90
17483;DHT22;8858;52.308;20.994;2023-06-14T05:11:24;15.40;99.90
17483;DHT22;8858;52.308;20.994;2023-06-14T05:13:54;15.40;99.90
17483;DHT22;8858;52.308;20.994;2023-06-14T05:16:23;15.40;99.90
17483;DHT22;8858;52.308;20.994;2023-06-14T05:18:54;15.40;99.90
17483;DHT22;8858;52.308;20.994;2023-06-14T05:21:22;15.40;99.90
17483;DHT22;8858;52.308;20.994;2023-06-14T05:23:51;15.40;99.90
17483;DHT22;8858;52.308;20.994;2023-06-14T05:26:19;15.50;99.90
17483;DHT22;8858;52.308;20.994;2023-06-14T05:28:47;15.40;99.90
17483;DHT22;8858;52.308;20.994;2023-06-14T05:31:16;15.50;99.90
17483;DHT22;8858;52.308;20.994;2023-06-14T05:33:45;15.50;99.90
17483;DHT22;8858;52.308;20.994;2023-06-14T05:36:14;15.50;99.90
17483;DHT22;8858;52.308;20.994;2023-06-14T05:38:46;15.50;99.90
17483;DHT22;8858;52.308;20.994;2023-06-14T05:41:15;15.50;99.90
17483;DHT22;8858;52.308;20.994;2023-06-14T05:43:43;15.50;99.90
17483;DHT22;8858;52.308;20.994;2023-06-14T05:46:12;15.50;99.90
17483;DHT22;8858;52.308;20.994;2023-06-14T05:48:40;15.60;99.90
17483;DHT22;8858;52.308;20.994;2023-06-14T05:51:08;15.60;99.90
17483;DHT22;8858;52.308;20.994;2023-06-14T05:53:38;15.60;99.90
17483;DHT22;8858;52.308;20.994;2023-06-14T05:56:08;15.70;99.90
17483;DHT22;8858;52.308;20.994;2023-06-14T05:58:36;15.80;99.90
17483;DHT22;8858;52.308;20.994;2023-06-14T06:01:05;15.80;99.90
17483;DHT22;8858;52.308;20.994;2023-06-14T06:03:33;15.90;99.90
17483;DHT22;8858;52.308;20.994;2023-06-14T06:06:02;15.90;99.90
17483;DHT22;8858;52.308;20.994;2023-06-14T06:08:33;16.00;99.90
17483;DHT22;8858;52.308;20.994;2023-06-14T06:11:05;16.10;99.90
17483;DHT22;8858;52.308;20.994;2023-06-14T06:13:33;16.20;99.90
17483;DHT22;8858;52.308;20.994;2023-06-14T06:16:02;16.20;99.90
17483;DHT22;8858;52.308;20.994;2023-06-14T06:18:30;16.30;99.90
17483;DHT22;8858;52.308;20.994;2023-06-14T06:21:05;16.30;99.90
17483;DHT22;8858;52.308;20.994;2023-06-14T06:23:33;16.40;99.90
17483;DHT22;8858;52.308;20.994;2023-06-14T06:26:02;16.50;99.90
17483;DHT22;8858;52.308;20.994;2023-06-14T06:28:32;16.50;99.90
17483;DHT22;8858;52.308;20.994;2023-06-14T06:31:02;16.60;99.90
17483;DHT22;8858;52.308;20.994;2023-06-14T06:33:31;16.70;99.90
17483;DHT22;8858;52.308;20.994;2023-06-14T06:35:59;16.70;99.90
17483;DHT22;8858;52.308;20.994;2023-06-14T06:38:27;16.80;99.90
17483;DHT22;8858;52.308;20.994;2023-06-14T06:40:55;16.80;99.90
17483;DHT22;8858;52.308;20.994;2023-06-14T06:43:24;16.80;99.90
17483;DHT22;8858;52.308;20.994;2023-06-14T06:45:55;16.80;99.90
17483;DHT22;8858;52.308;20.994;2023-06-14T06:48:27;16.80;99.90
17483;DHT22;8858;52.308;20.994;2023-06-14T06:50:55;16.80;99.90
17483;DHT22;8858;52.308;20.994;2023-06-14T06:53:23;16.80;99.90
17483;DHT22;8858;52.308;20.994;2023-06-14T06:56:07;16.90;99.90
17483;DHT22;8858;52.308;20.994;2023-06-14T06:58:35;17.00;99.90
17483;DHT22;8858;52.308;20.994;2023-06-14T07:01:05;17.10;99.90
17483;DHT22;8858;52.308;20.994;2023-06-14T07:03:34;17.10;99.90
17483;DHT22;8858;52.308;20.994;2023-06-14T07:06:03;17.10;99.90
17483;DHT22;8858;52.308;20.994;2023-06-14T07:08:31;17.10;99.90
17483;DHT22;8858;52.308;20.994;2023-06-14T07:11:00;17.10;99.90
17483;DHT22;8858;52.308;20.994;2023-06-14T07:13:28;17.00;99.90
17483;DHT22;8858;52.308;20.994;2023-06-14T07:15:58;17.00;99.90
17483;DHT22;8858;52.308;20.994;2023-06-14T07:18:32;17.00;99.90
17483;DHT22;8858;52.308;20.994;2023-06-14T07:21:00;17.00;99.90
17483;DHT22;8858;52.308;20.994;2023-06-14T07:23:28;17.00;99.90
17483;DHT22;8858;52.308;20.994;2023-06-14T07:25:57;17.00;99.90
17483;DHT22;8858;52.308;20.994;2023-06-14T07:28:25;17.00;99.90
17483;DHT22;8858;52.308;20.994;2023-06-14T07:30:53;17.10;99.90
17483;DHT22;8858;52.308;20.994;2023-06-14T07:33:22;17.20;99.90
17483;DHT22;8858;52.308;20.994;2023-06-14T07:35:51;17.30;99.90
17483;DHT22;8858;52.308;20.994;2023-06-14T07:38:20;17.40;99.90
17483;DHT22;8858;52.308;20.994;2023-06-14T07:40:48;17.60;99.90
17483;DHT22;8858;52.308;20.994;2023-06-14T07:43:17;17.70;99.90
17483;DHT22;8858;52.308;20.994;2023-06-14T07:45:49;17.80;99.90
17483;DHT22;8858;52.308;20.994;2023-06-14T07:48:34;17.80;99.90
17483;DHT22;8858;52.308;20.994;2023-06-14T07:51:04;17.90;99.90
17483;DHT22;8858;52.308;20.994;2023-06-14T07:53:32;18.00;99.90
17483;DHT22;8858;52.308;20.994;2023-06-14T07:56:00;18.10;99.90
17483;DHT22;8858;52.308;20.994;2023-06-14T07:58:29;18.20;99.90
17483;DHT22;8858;52.308;20.994;2023-06-14T08:00:58;18.30;99.90
17483;DHT22;8858;52.308;20.994;2023-06-14T08:03:27;18.40;99.90
17483;DHT22;8858;52.308;20.994;2023-06-14T08:05:55;18.50;99.90
17483;DHT22;8858;52.308;20.994;2023-06-14T08:08:25;18.50;99.90
17483;DHT22;8858;52.308;20.994;2023-06-14T08:10:54;18.60;99.90
17483;DHT22;8858;52.308;20.994;2023-06-14T08:13:22;18.70;99.90
17483;DHT22;8858;52.308;20.994;2023-06-14T08:15:50;18.80;99.90
17483;DHT22;8858;52.308;20.994;2023-06-14T08:18:24;18.90;99.90
17483;DHT22;8858;52.308;20.994;2023-06-14T08:20:52;19.00;99.90
17483;DHT22;8858;52.308;20.994;2023-06-14T08:23:21;19.10;99.90
17483;DHT22;8858;52.308;20.994;2023-06-14T08:25:50;19.20;99.90
17483;DHT22;8858;52.308;20.994;2023-06-14T08:28:19;19.30;99.90
17483;DHT22;8858;52.308;20.994;2023-06-14T08:30:49;19.50;99.90
17483;DHT22;8858;52.308;20.994;2023-06-14T08:33:18;19.60;99.90
17483;DHT22;8858;52.308;20.994;2023-06-14T08:35:46;19.60;99.90
17483;DHT22;8858;52.308;20.994;2023-06-14T08:38:15;19.70;99.90
17483;DHT22;8858;52.308;20.994;2023-06-14T08:40:45;19.70;99.90
17483;DHT22;8858;52.308;20.994;2023-06-14T08:43:20;19.70;99.90
17483;DHT22;8858;52.308;20.994;2023-06-14T08:45:56;19.80;99.90
17483;DHT22;8858;52.308;20.994;2023-06-14T08:48:26;19.80;99.90
17483;DHT22;8858;52.308;20.994;2023-06-14T08:50:56;19.80;99.90
17483;DHT22;8858;52.308;20.994;2023-06-14T08:53:30;19.90;99.90
17483;DHT22;8858;52.308;20.994;2023-06-14T08:56:05;19.90;99.90
17483;DHT22;8858;52.308;20.994;2023-06-14T08:58:36;19.90;99.90
17483;DHT22;8858;52.308;20.994;2023-06-14T09:01:10;20.00;99.90
17483;DHT22;8858;52.308;20.994;2023-06-14T09:03:41;20.20;99.90
17483;DHT22;8858;52.308;20.994;2023-06-14T09:06:10;20.40;99.90
17483;DHT22;8858;52.308;20.994;2023-06-14T09:08:42;20.50;99.90
17483;DHT22;8858;52.308;20.994;2023-06-14T09:11:11;20.80;99.90
17483;DHT22;8858;52.308;20.994;2023-06-14T09:13:42;21.00;99.90
17483;DHT22;8858;52.308;20.994;2023-06-14T09:16:11;21.30;99.90
17483;DHT22;8858;52.308;20.994;2023-06-14T09:18:40;21.50;99.90
17483;DHT22;8858;52.308;20.994;2023-06-14T09:21:11;21.70;99.90
17483;DHT22;8858;52.308;20.994;2023-06-14T09:23:42;21.70;99.90
17483;DHT22;8858;52.308;20.994;2023-06-14T09:26:13;21.70;99.90
17483;DHT22;8858;52.308;20.994;2023-06-14T09:28:44;21.80;99.90
17483;DHT22;8858;52.308;20.994;2023-06-14T09:31:14;21.90;99.90
17483;DHT22;8858;52.308;20.994;2023-06-14T09:33:43;21.90;99.90
17483;DHT22;8858;52.308;20.994;2023-06-14T09:36:15;21.90;99.90
17483;DHT22;8858;52.308;20.994;2023-06-14T09:38:52;21.90;99.90
17483;DHT22;8858;52.308;20.994;2023-06-14T09:41:20;21.90;99.90
17483;DHT22;8858;52.308;20.994;2023-06-14T09:43:50;21.70;99.90
17483;DHT22;8858;52.308;20.994;2023-06-14T09:46:18;21.50;99.90
17483;DHT22;8858;52.308;20.994;2023-06-14T09:48:50;21.40;99.90
17483;DHT22;8858;52.308;20.994;2023-06-14T09:51:19;21.20;99.90
17483;DHT22;8858;52.308;20.994;2023-06-14T09:53:50;21.00;99.90
17483;DHT22;8858;52.308;20.994;2023-06-14T09:56:23;20.90;99.90
17483;DHT22;8858;52.308;20.994;2023-06-14T09:58:57;20.80;99.90
17483;DHT22;8858;52.308;20.994;2023-06-14T10:01:32;20.70;99.90
17483;DHT22;8858;52.308;20.994;2023-06-14T10:04:03;20.70;99.90
17483;DHT22;8858;52.308;20.994;2023-06-14T10:06:40;20.70;99.90
17483;DHT22;8858;52.308;20.994;2023-06-14T10:09:09;20.70;99.90
17483;DHT22;8858;52.308;20.994;2023-06-14T10:11:39;20.80;99.90
17483;DHT22;8858;52.308;20.994;2023-06-14T10:14:15;20.80;99.90
17483;DHT22;8858;52.308;20.994;2023-06-14T10:16:49;20.90;99.90
17483;DHT22;8858;52.308;20.994;2023-06-14T10:19:24;21.00;99.90
17483;DHT22;8858;52.308;20.994;2023-06-14T10:21:58;21.20;99.90
17483;DHT22;8858;52.308;20.994;2023-06-14T10:24:34;21.30;99.90
17483;DHT22;8858;52.308;20.994;2023-06-14T10:27:06;21.40;99.90
17483;DHT22;8858;52.308;20.994;2023-06-14T10:30:03;21.60;99.90
17483;DHT22;8858;52.308;20.994;2023-06-14T10:32:34;21.80;99.90
17483;DHT22;8858;52.308;20.994;2023-06-14T10:35:05;21.90;99.90
17483;DHT22;8858;52.308;20.994;2023-06-14T10:37:34;22.00;99.90
17483;DHT22;8858;52.308;20.994;2023-06-14T10:40:03;22.10;99.90
17483;DHT22;8858;52.308;20.994;2023-06-14T10:42:35;22.20;99.90
17483;DHT22;8858;52.308;20.994;2023-06-14T10:45:05;22.20;99.90
17483;DHT22;8858;52.308;20.994;2023-06-14T10:47:34;22.30;99.90
17483;DHT22;8858;52.308;20.994;2023-06-14T10:50:06;22.20;99.90
17483;DHT22;8858;52.308;20.994;2023-06-14T10:52:40;22.30;99.90
17483;DHT22;8858;52.308;20.994;2023-06-14T10:55:13;22.40;99.90
17483;DHT22;8858;52.308;20.994;2023-06-14T10:57:47;22.40;99.90
17483;DHT22;8858;52.308;20.994;2023-06-14T11:00:22;22.50;99.90
17483;DHT22;8858;52.308;20.994;2023-06-14T11:06:00;22.80;99.90
17483;DHT22;8858;52.308;20.994;2023-06-14T11:09:01;22.90;99.90
17483;DHT22;8858;52.308;20.994;2023-06-14T11:11:35;23.00;99.90
17483;DHT22;8858;52.308;20.994;2023-06-14T11:14:06;23.10;99.90
17483;DHT22;8858;52.308;20.994;2023-06-14T11:16:39;23.30;99.90
17483;DHT22;8858;52.308;20.994;2023-06-14T11:19:08;23.40;99.90
17483;DHT22;8858;52.308;20.994;2023-06-14T11:21:40;23.60;99.90
17483;DHT22;8858;52.308;20.994;2023-06-14T11:24:12;23.70;99.90
17483;DHT22;8858;52.308;20.994;2023-06-14T11:26:41;23.90;99.90
17483;DHT22;8858;52.308;20.994;2023-06-14T11:29:09;24.00;99.90
17483;DHT22;8858;52.308;20.994;2023-06-14T11:31:42;24.30;99.90
17483;DHT22;8858;52.308;20.994;2023-06-14T11:34:12;24.40;99.90
17483;DHT22;8858;52.308;20.994;2023-06-14T11:36:41;24.60;99.90
17483;DHT22;8858;52.308;20.994;2023-06-14T11:39:10;24.70;99.90
17483;DHT22;8858;52.308;20.994;2023-06-14T11:41:41;24.70;99.90
17483;DHT22;8858;52.308;20.994;2023-06-14T11:44:10;24.70;99.90
17483;DHT22;8858;52.308;20.994;2023-06-14T11:46:40;24.50;99.90
17483;DHT22;8858;52.308;20.994;2023-06-14T11:49:10;24.50;99.90
17483;DHT22;8858;52.308;20.994;2023-06-14T11:51:39;24.70;99.90
17483;DHT22;8858;52.308;20.994;2023-06-14T11:54:07;24.90;99.90
17483;DHT22;8858;52.308;20.994;2023-06-14T11:56:36;25.10;99.90
17483;DHT22;8858;52.308;20.994;2023-06-14T11:59:09;25.30;99.90
17483;DHT22;8858;52.308;20.994;2023-06-14T12:01:37;25.50;99.90
17483;DHT22;8858;52.308;20.994;2023-06-14T12:04:08;25.80;99.90
17483;DHT22;8858;52.308;20.994;2023-06-14T12:06:37;25.90;99.90
17483;DHT22;8858;52.308;20.994;2023-06-14T12:09:07;26.10;99.90
17483;DHT22;8858;52.308;20.994;2023-06-14T12:11:41;26.20;99.90
17483;DHT22;8858;52.308;20.994;2023-06-14T12:14:10;26.20;99.90
17483;DHT22;8858;52.308;20.994;2023-06-14T12:16:40;26.10;99.90
17483;DHT22;8858;52.308;20.994;2023-06-14T12:19:13;26.20;99.90
17483;DHT22;8858;52.308;20.994;2023-06-14T12:21:43;26.20;99.90
17483;DHT22;8858;52.308;20.994;2023-06-14T12:24:12;26.50;99.90
17483;DHT22;8858;52.308;20.994;2023-06-14T12:26:41;26.50;99.90
17483;DHT22;8858;52.308;20.994;2023-06-14T12:29:13;26.60;99.90
17483;DHT22;8858;52.308;20.994;2023-06-14T12:31:42;27.00;99.90
17483;DHT22;8858;52.308;20.994;2023-06-14T12:34:12;27.30;99.90
17483;DHT22;8858;52.308;20.994;2023-06-14T12:36:41;27.60;99.90
17483;DHT22;8858;52.308;20.994;2023-06-14T12:39:12;27.60;99.90
17483;DHT22;8858;52.308;20.994;2023-06-14T12:41:43;27.50;99.90
17483;DHT22;8858;52.308;20.994;2023-06-14T12:44:11;27.30;99.90
17483;DHT22;8858;52.308;20.994;2023-06-14T12:46:40;27.20;99.90
17483;DHT22;8858;52.308;20.994;2023-06-14T12:49:09;27.10;99.90
17483;DHT22;8858;52.308;20.994;2023-06-14T12:51:40;27.10;99.90
17483;DHT22;8858;52.308;20.994;2023-06-14T12:54:12;27.10;99.90
17483;DHT22;8858;52.308;20.994;2023-06-14T12:56:46;27.10;99.20
17483;DHT22;8858;52.308;20.994;2023-06-14T12:59:38;27.30;99.40
17483;DHT22;8858;52.308;20.994;2023-06-14T13:02:13;27.40;99.20
17483;DHT22;8858;52.308;20.994;2023-06-14T13:04:42;27.70;98.90
17483;DHT22;8858;52.308;20.994;2023-06-14T13:07:13;28.00;97.70
17483;DHT22;8858;52.308;20.994;2023-06-14T13:09:42;28.40;97.20
17483;DHT22;8858;52.308;20.994;2023-06-14T13:12:10;28.80;96.80
17483;DHT22;8858;52.308;20.994;2023-06-14T13:14:42;29.20;95.90
17483;DHT22;8858;52.308;20.994;2023-06-14T13:17:11;29.40;95.20
17483;DHT22;8858;52.308;20.994;2023-06-14T13:19:39;29.90;95.00
17483;DHT22;8858;52.308;20.994;2023-06-14T13:22:09;30.50;94.00
17483;DHT22;8858;52.308;20.994;2023-06-14T13:24:39;31.50;92.20
17483;DHT22;8858;52.308;20.994;2023-06-14T13:27:10;32.50;91.10
17483;DHT22;8858;52.308;20.994;2023-06-14T13:29:41;34.20;89.60
17483;DHT22;8858;52.308;20.994;2023-06-14T13:32:09;35.90;82.90
17483;DHT22;8858;52.308;20.994;2023-06-14T13:34:37;37.00;78.70
17483;DHT22;8858;52.308;20.994;2023-06-14T13:37:06;38.00;76.60
17483;DHT22;8858;52.308;20.994;2023-06-14T13:39:34;38.40;72.80
17483;DHT22;8858;52.308;20.994;2023-06-14T13:42:06;37.20;73.50
17483;DHT22;8858;52.308;20.994;2023-06-14T13:44:34;35.90;75.00
17483;DHT22;8858;52.308;20.994;2023-06-14T13:47:03;34.70;76.40
17483;DHT22;8858;52.308;20.994;2023-06-14T13:49:32;33.30;78.50
17483;DHT22;8858;52.308;20.994;2023-06-14T13:52:07;33.40;80.30
17483;DHT22;8858;52.308;20.994;2023-06-14T13:54:35;33.30;80.50
17483;DHT22;8858;52.308;20.994;2023-06-14T13:57:05;33.10;80.40
17483;DHT22;8858;52.308;20.994;2023-06-14T13:59:33;32.60;81.10
17483;DHT22;8858;52.308;20.994;2023-06-14T14:02:02;32.80;81.30
17483;DHT22;8858;52.308;20.994;2023-06-14T14:04:34;33.90;79.40
17483;DHT22;8858;52.308;20.994;2023-06-14T14:07:04;34.70;77.50
17483;DHT22;8858;52.308;20.994;2023-06-14T14:09:33;34.70;76.50
17483;DHT22;8858;52.308;20.994;2023-06-14T14:12:08;34.10;76.30
17483;DHT22;8858;52.308;20.994;2023-06-14T14:14:37;33.90;77.80
17483;DHT22;8858;52.308;20.994;2023-06-14T14:17:05;35.10;76.30
17483;DHT22;8858;52.308;20.994;2023-06-14T14:19:34;37.10;72.70
17483;DHT22;8858;52.308;20.994;2023-06-14T14:22:02;38.90;69.90
17483;DHT22;8858;52.308;20.994;2023-06-14T14:24:34;40.40;67.40
17483;DHT22;8858;52.308;20.994;2023-06-14T14:27:02;41.20;65.40
17483;DHT22;8858;52.308;20.994;2023-06-14T14:29:33;41.60;64.40
17483;DHT22;8858;52.308;20.994;2023-06-14T14:32:03;41.00;64.80
17483;DHT22;8858;52.308;20.994;2023-06-14T14:34:31;40.00;65.40
17483;DHT22;8858;52.308;20.994;2023-06-14T14:37:03;39.10;66.10
17483;DHT22;8858;52.308;20.994;2023-06-14T14:39:32;38.70;67.50
17483;DHT22;8858;52.308;20.994;2023-06-14T14:42:00;38.20;67.50
17483;DHT22;8858;52.308;20.994;2023-06-14T14:44:28;36.90;69.30
17483;DHT22;8858;52.308;20.994;2023-06-14T14:46:58;35.90;71.40
17483;DHT22;8858;52.308;20.994;2023-06-14T14:49:26;35.50;72.50
17483;DHT22;8858;52.308;20.994;2023-06-14T14:51:55;35.00;73.20
17483;DHT22;8858;52.308;20.994;2023-06-14T14:54:47;34.10;74.40
17483;DHT22;8858;52.308;20.994;2023-06-14T14:57:15;32.60;76.60
17483;DHT22;8858;52.308;20.994;2023-06-14T14:59:47;31.50;79.10
17483;DHT22;8858;52.308;20.994;2023-06-14T15:02:16;30.40;81.10
17483;DHT22;8858;52.308;20.994;2023-06-14T15:04:46;29.60;82.50
17483;DHT22;8858;52.308;20.994;2023-06-14T15:07:14;28.80;84.40
17483;DHT22;8858;52.308;20.994;2023-06-14T15:09:43;28.90;84.90
17483;DHT22;8858;52.308;20.994;2023-06-14T15:12:13;30.30;82.20
17483;DHT22;8858;52.308;20.994;2023-06-14T15:14:42;31.60;79.30
17483;DHT22;8858;52.308;20.994;2023-06-14T15:17:12;32.50;78.10
17483;DHT22;8858;52.308;20.994;2023-06-14T15:19:41;32.50;77.70
17483;DHT22;8858;52.308;20.994;2023-06-14T15:22:10;31.90;78.80
17483;DHT22;8858;52.308;20.994;2023-06-14T15:24:41;31.20;79.20
17483;DHT22;8858;52.308;20.994;2023-06-14T15:27:12;30.20;81.20
17483;DHT22;8858;52.308;20.994;2023-06-14T15:29:41;29.20;83.00
17483;DHT22;8858;52.308;20.994;2023-06-14T15:32:10;28.30;85.20
17483;DHT22;8858;52.308;20.994;2023-06-14T15:34:38;27.60;87.40
17483;DHT22;8858;52.308;20.994;2023-06-14T15:37:10;28.20;88.50
17483;DHT22;8858;52.308;20.994;2023-06-14T15:39:41;30.30;83.60
17483;DHT22;8858;52.308;20.994;2023-06-14T15:42:10;32.90;79.60
17483;DHT22;8858;52.308;20.994;2023-06-14T15:44:38;35.10;74.70
17483;DHT22;8858;52.308;20.994;2023-06-14T15:47:08;36.80;71.10
17483;DHT22;8858;52.308;20.994;2023-06-14T15:49:37;38.10;68.80
17483;DHT22;8858;52.308;20.994;2023-06-14T15:52:07;39.20;68.20
17483;DHT22;8858;52.308;20.994;2023-06-14T15:54:37;40.30;66.40